createdAt,value
2018-12-27T03:00:22.003Z,24.83
2018-12-27T03:02:51.613Z,24.83
2018-12-27T03:05:21.244Z,23.80
2018-12-27T03:07:50.885Z,23.20
2018-12-27T03:10:20.506Z,24.07
2018-12-27T03:12:50.113Z,23.47
2018-12-27T03:15:19.754Z,25.57
2018-12-27T03:17:50.938Z,26.03
2018-12-27T03:20:20.558Z,23.03
2018-12-27T03:22:50.168Z,23.37
2018-12-27T03:25:19.808Z,25.87
2018-12-27T03:27:49.429Z,24.17
2018-12-27T03:30:19.032Z,23.47
2018-12-27T03:32:48.680Z,25.73
2018-12-27T03:35:18.316Z,25.83
2018-12-27T03:37:47.962Z,26.23
2018-12-27T03:40:17.914Z,25.97
2018-12-27T03:42:47.523Z,28.30
2018-12-27T03:45:17.183Z,29.57
2018-12-27T03:47:46.834Z,28.67
2018-12-27T03:50:16.463Z,29.47
2018-12-27T03:52:46.757Z,29.23
2018-12-27T03:55:16.371Z,31.53
2018-12-27T03:57:46.001Z,32.53
2018-12-27T04:00:15.642Z,35.27
2018-12-27T04:02:46.210Z,38.43
2018-12-27T04:05:15.851Z,33.10
2018-12-27T04:07:45.479Z,30.67
2018-12-27T04:10:15.646Z,27.57
2018-12-27T04:12:45.356Z,29.00
2018-12-27T04:15:14.654Z,29.40
2018-12-27T04:17:43.934Z,32.73
2018-12-27T04:20:13.311Z,50.63
2018-12-27T04:22:42.638Z,37.80
2018-12-27T04:25:12.882Z,35.83
2018-12-27T04:27:42.197Z,32.10
2018-12-27T04:30:11.527Z,33.23
2018-12-27T04:32:40.830Z,46.37
2018-12-27T04:35:10.147Z,36.50
2018-12-27T04:37:39.441Z,47.70
2018-12-27T04:40:08.743Z,36.33
2018-12-27T04:42:38.058Z,42.73
2018-12-27T04:45:07.349Z,45.07
2018-12-27T04:47:36.660Z,55.73
2018-12-27T04:50:05.943Z,38.13
2018-12-27T04:52:36.346Z,45.17
2018-12-27T04:55:05.613Z,33.27
2018-12-27T04:57:36.923Z,39.43
2018-12-27T05:00:09.327Z,36.87
2018-12-27T05:02:38.625Z,45.73
2018-12-27T05:05:08.415Z,39.17
2018-12-27T05:07:37.674Z,37.87
2018-12-27T05:10:06.979Z,31.63
2018-12-27T05:12:36.291Z,27.57
2018-12-27T05:15:05.647Z,32.87
2018-12-27T05:17:36.701Z,28.50
2018-12-27T05:20:05.981Z,26.17
2018-12-27T05:22:35.314Z,34.17
2018-12-27T05:25:04.562Z,31.70
2018-12-27T05:27:35.190Z,29.77
2018-12-27T05:30:05.036Z,34.43
2018-12-27T05:32:34.293Z,27.30
2018-12-27T05:35:04.706Z,28.63
2018-12-27T05:37:33.967Z,38.73
2018-12-27T05:40:06.616Z,30.20
2018-12-27T05:42:35.878Z,39.40
2018-12-27T05:45:05.750Z,34.53
2018-12-27T05:47:35.052Z,37.73
2018-12-27T05:50:04.911Z,32.17
2018-12-27T05:52:34.197Z,32.07
2018-12-27T05:55:03.470Z,32.47
2018-12-27T05:57:32.721Z,29.53
2018-12-27T06:00:03.235Z,44.50
2018-12-27T06:02:32.553Z,42.20
2018-12-27T06:05:01.822Z,44.70
2018-12-27T06:07:31.422Z,37.60
2018-12-27T06:10:00.709Z,39.73
2018-12-27T06:12:31.351Z,47.20
2018-12-27T06:15:00.630Z,54.13
2018-12-27T06:17:29.906Z,62.63
2018-12-27T06:19:59.210Z,49.13
2018-12-27T06:22:28.511Z,69.50
2018-12-27T06:24:57.782Z,57.13
2018-12-27T06:27:27.054Z,58.00
2018-12-27T06:29:57.569Z,47.37
2018-12-27T06:32:26.803Z,46.90
2018-12-27T06:34:56.258Z,52.63
2018-12-27T06:37:28.338Z,47.53
2018-12-27T06:39:57.628Z,45.40
2018-12-27T06:42:28.530Z,44.83
2018-12-27T06:44:57.830Z,41.60
2018-12-27T06:47:29.809Z,52.07
2018-12-27T06:49:59.093Z,47.43
2018-12-27T06:52:28.441Z,53.13
2018-12-27T06:54:57.734Z,47.20
2018-12-27T06:57:27.005Z,39.33
2018-12-27T06:59:56.314Z,44.00
2018-12-27T07:02:25.578Z,51.40
2018-12-27T07:04:54.850Z,49.70
2018-12-27T07:07:25.146Z,51.07
2018-12-27T07:09:54.427Z,59.87
2018-12-27T07:12:26.718Z,57.47
2018-12-27T07:14:56.033Z,59.57
2018-12-27T07:17:25.370Z,59.17
2018-12-27T07:19:54.651Z,52.67
2018-12-27T07:22:23.983Z,57.20
2018-12-27T07:24:53.378Z,74.90
2018-12-27T07:27:22.581Z,58.83
2018-12-27T07:29:51.906Z,53.60
2018-12-27T07:32:21.234Z,46.73
2018-12-27T07:34:56.489Z,40.10
2018-12-27T07:37:21.443Z,43.80
2018-12-27T07:39:50.742Z,36.77
2018-12-27T07:42:20.016Z,37.27
2018-12-27T07:44:49.332Z,41.10
2018-12-27T07:47:18.597Z,39.63
2018-12-27T07:49:47.910Z,42.97
2018-12-27T07:52:17.221Z,46.17
2018-12-27T07:54:47.064Z,50.57
2018-12-27T07:57:16.393Z,47.13
2018-12-27T07:59:45.694Z,41.90
2018-12-27T08:02:14.961Z,41.90
2018-12-27T08:04:44.294Z,45.23
2018-12-27T08:07:13.560Z,45.57
2018-12-27T08:09:42.862Z,36.67
2018-12-27T08:12:12.381Z,41.73
2018-12-27T08:14:41.713Z,42.63
2018-12-27T08:17:10.998Z,33.53
2018-12-27T08:19:40.281Z,39.00
2018-12-27T08:22:09.567Z,26.67
2018-12-27T08:24:38.886Z,31.77
2018-12-27T08:27:08.154Z,28.90
2018-12-27T08:29:37.429Z,29.13
2018-12-27T08:32:06.713Z,27.30
2018-12-27T08:34:37.170Z,25.77
2018-12-27T08:37:06.572Z,23.83
2018-12-27T08:39:36.166Z,20.30
2018-12-27T08:42:05.441Z,20.80
2018-12-27T08:44:35.166Z,20.73
2018-12-27T08:47:04.482Z,18.83
2018-12-27T08:49:33.765Z,18.10
2018-12-27T08:52:04.719Z,15.50
2018-12-27T08:54:34.025Z,15.70
2018-12-27T08:57:04.560Z,15.13
2018-12-27T08:59:33.894Z,16.97
2018-12-27T09:02:05.165Z,15.07
2018-12-27T09:04:34.465Z,13.07
2018-12-27T09:07:04.637Z,13.80
2018-12-27T09:09:33.950Z,15.23
2018-12-27T09:12:03.315Z,16.37
2018-12-27T09:14:32.656Z,14.97
2018-12-27T09:17:02.621Z,15.47
2018-12-27T09:19:31.926Z,13.70
2018-12-27T09:22:02.806Z,14.07
2018-12-27T09:24:32.091Z,19.67
2018-12-27T09:27:02.370Z,15.77
2018-12-27T09:29:31.661Z,15.97
2018-12-27T09:32:02.642Z,14.73
2018-12-27T09:34:32.934Z,14.90
2018-12-27T09:37:03.014Z,15.40
2018-12-27T09:39:32.306Z,16.00
2018-12-27T09:42:02.744Z,13.50
2018-12-27T09:44:32.017Z,15.97
2018-12-27T09:47:01.818Z,15.97
2018-12-27T09:49:31.130Z,16.20
2018-12-27T09:52:02.214Z,13.23
2018-12-27T09:54:31.691Z,13.20
2018-12-27T09:57:01.418Z,12.00
2018-12-27T09:59:31.668Z,13.00
2018-12-27T10:02:02.889Z,12.47
2018-12-27T10:04:32.162Z,14.17
2018-12-27T10:07:02.830Z,11.70
2018-12-27T10:09:32.109Z,12.20
2018-12-27T10:12:01.807Z,14.63
2018-12-27T10:14:31.089Z,14.23
2018-12-27T10:17:00.375Z,15.20
2018-12-27T10:19:30.627Z,14.37
2018-12-27T10:21:59.905Z,12.27
2018-12-27T10:24:30.895Z,13.00
2018-12-27T10:27:00.176Z,11.87
2018-12-27T10:29:30.792Z,10.80
2018-12-27T10:32:00.161Z,9.90
2018-12-27T10:34:30.875Z,10.90
2018-12-27T10:37:00.199Z,10.47
2018-12-27T10:39:30.891Z,11.87
2018-12-27T10:42:00.201Z,12.37
2018-12-27T10:44:31.834Z,11.73
2018-12-27T10:47:03.734Z,11.83
2018-12-27T10:49:33.033Z,10.33
2018-12-27T10:52:03.157Z,10.67
2018-12-27T10:54:32.418Z,11.03
2018-12-27T10:57:03.531Z,11.13
2018-12-27T10:59:32.869Z,11.17
2018-12-27T11:02:03.444Z,11.27
2018-12-27T11:04:32.715Z,10.47
2018-12-27T11:07:03.049Z,10.70
2018-12-27T11:09:33.885Z,11.43
2018-12-27T11:12:03.809Z,11.00
2018-12-27T11:14:33.094Z,10.20
2018-12-27T11:17:02.393Z,11.30
2018-12-27T11:19:31.652Z,10.77
2018-12-27T11:22:02.761Z,10.43
2018-12-27T11:24:32.082Z,10.93
2018-12-27T11:27:02.324Z,10.17
2018-12-27T11:29:31.645Z,9.83
2018-12-27T11:32:03.424Z,11.20
2018-12-27T11:34:32.725Z,10.00
2018-12-27T11:37:03.389Z,9.87
2018-12-27T11:39:32.666Z,10.00
2018-12-27T11:42:02.846Z,8.20
2018-12-27T11:44:32.119Z,8.97
2018-12-27T11:47:02.817Z,7.57
2018-12-27T11:49:32.111Z,8.27
2018-12-27T11:52:02.764Z,8.10
2018-12-27T11:54:32.072Z,7.37
2018-12-27T11:57:01.896Z,8.27
2018-12-27T11:59:31.163Z,7.70
2018-12-27T12:02:00.482Z,7.77
2018-12-27T12:04:29.770Z,7.43
2018-12-27T12:06:59.051Z,7.87
2018-12-27T12:09:28.314Z,8.13
2018-12-27T12:11:57.623Z,6.83
2018-12-27T12:14:28.406Z,6.87
2018-12-27T12:16:57.689Z,6.63
2018-12-27T12:19:27.000Z,6.13
2018-12-27T12:21:56.924Z,7.87
2018-12-27T12:24:26.207Z,9.17
2018-12-27T12:26:55.463Z,8.47
2018-12-27T12:29:24.725Z,8.77
2018-12-27T12:31:54.008Z,10.33
2018-12-27T12:34:23.270Z,9.27
2018-12-27T12:36:52.582Z,7.93
2018-12-27T12:39:21.846Z,7.03
2018-12-27T12:41:51.097Z,8.43
2018-12-27T12:44:20.506Z,6.97
2018-12-27T12:46:50.742Z,7.57
2018-12-27T12:49:20.063Z,7.30
2018-12-27T12:51:49.395Z,8.27
2018-12-27T12:54:18.649Z,7.43
2018-12-27T12:56:47.968Z,7.73
2018-12-27T12:59:17.234Z,7.77
2018-12-27T13:01:46.490Z,7.87
2018-12-27T13:04:16.222Z,6.40
2018-12-27T13:06:45.523Z,6.90
2018-12-27T13:09:15.868Z,6.50
2018-12-27T13:11:45.167Z,7.90
2018-12-27T13:14:14.484Z,7.07
2018-12-27T13:16:43.794Z,6.60
2018-12-27T13:19:13.052Z,6.77
2018-12-27T13:21:42.937Z,6.40
2018-12-27T13:24:12.193Z,6.93
2018-12-27T13:26:41.691Z,7.30
2018-12-27T13:29:11.006Z,6.47
2018-12-27T13:31:40.286Z,6.03
2018-12-27T13:34:09.566Z,6.63
2018-12-27T13:36:38.864Z,6.50
2018-12-27T13:39:08.141Z,7.17
2018-12-27T13:41:37.401Z,5.80
2018-12-27T13:44:06.722Z,5.60
2018-12-27T13:46:36.051Z,5.73
2018-12-27T13:49:05.321Z,6.33
2018-12-27T13:51:34.590Z,7.33
2018-12-27T13:54:03.902Z,8.73
2018-12-27T13:56:33.186Z,7.90
2018-12-27T13:59:02.470Z,8.23
2018-12-27T14:01:31.821Z,7.30
2018-12-27T14:04:03.493Z,8.30
2018-12-27T14:06:33.007Z,9.20
2018-12-27T14:09:02.650Z,7.20
2018-12-27T14:11:31.969Z,9.27
2018-12-27T14:14:02.911Z,6.70
2018-12-27T14:16:32.166Z,7.17
2018-12-27T14:19:01.478Z,6.77
2018-12-27T14:21:30.749Z,6.00
2018-12-27T14:24:00.034Z,6.60
2018-12-27T14:26:29.769Z,6.80
2018-12-27T14:28:59.042Z,6.80
2018-12-27T14:31:28.366Z,7.73
2018-12-27T14:33:57.636Z,6.77
2018-12-27T14:36:26.982Z,7.03
2018-12-27T14:38:56.325Z,7.53
2018-12-27T14:41:25.611Z,7.50
2018-12-27T14:43:55.545Z,7.00
2018-12-27T14:46:24.887Z,8.60
2018-12-27T14:48:54.144Z,7.93
2018-12-27T14:51:23.466Z,7.90
2018-12-27T14:53:52.729Z,7.97
2018-12-27T14:56:21.991Z,8.97
2018-12-27T14:58:51.317Z,7.70
2018-12-27T15:01:20.569Z,8.67
2018-12-27T15:03:49.902Z,9.80
2018-12-27T15:06:19.163Z,11.30
2018-12-27T15:08:49.234Z,12.17
2018-12-27T15:11:18.551Z,10.03
2018-12-27T15:13:47.866Z,10.03
2018-12-27T15:16:17.182Z,9.30
2018-12-27T15:18:46.502Z,11.47
2018-12-27T15:21:15.783Z,11.00
2018-12-27T15:23:45.050Z,13.30
2018-12-27T15:26:14.378Z,12.33
2018-12-27T15:28:43.650Z,12.40
2018-12-27T15:31:12.927Z,10.80
2018-12-27T15:33:42.263Z,10.03
2018-12-27T15:36:11.527Z,13.50
2018-12-27T15:38:40.857Z,12.50
2018-12-27T15:41:10.138Z,12.73
2018-12-27T15:43:39.466Z,13.30
2018-12-27T15:46:08.741Z,11.03
2018-12-27T15:48:38.007Z,13.57
2018-12-27T15:51:07.342Z,10.90
2018-12-27T15:53:36.614Z,11.57
2018-12-27T15:56:05.894Z,13.37
2018-12-27T15:58:35.244Z,11.50
2018-12-27T16:01:04.508Z,9.73
2018-12-27T16:03:33.786Z,9.67
2018-12-27T16:06:03.845Z,10.10
2018-12-27T16:08:33.089Z,10.83
2018-12-27T16:11:03.034Z,10.43
2018-12-27T16:13:32.349Z,7.83
2018-12-27T16:16:02.906Z,8.40
2018-12-27T16:18:32.165Z,6.90
2018-12-27T16:21:02.663Z,7.40
2018-12-27T16:23:32.557Z,7.53
2018-12-27T16:26:04.349Z,14.23
2018-12-27T16:28:33.678Z,8.97
2018-12-27T16:31:05.262Z,8.03
2018-12-27T16:33:34.598Z,9.17
2018-12-27T16:36:03.923Z,10.23
2018-12-27T16:38:33.190Z,9.97
2018-12-27T16:41:02.472Z,11.77
2018-12-27T16:43:31.776Z,11.30
2018-12-27T16:46:03.701Z,12.93
2018-12-27T16:48:33.050Z,13.40
2018-12-27T16:51:02.602Z,16.83
2018-12-27T16:53:32.142Z,16.67
2018-12-27T16:56:02.865Z,14.83
2018-12-27T16:58:32.103Z,9.83
2018-12-27T17:01:02.821Z,10.97
2018-12-27T17:03:32.350Z,9.20
2018-12-27T17:06:01.916Z,9.43
2018-12-27T17:08:31.181Z,10.20
2018-12-27T17:11:00.438Z,10.83
2018-12-27T17:13:32.521Z,8.93
2018-12-27T17:16:03.912Z,10.27
2018-12-27T17:18:33.187Z,8.63
2018-12-27T17:21:03.630Z,8.10
2018-12-27T17:23:32.870Z,11.07
2018-12-27T17:26:03.295Z,10.10
2018-12-27T17:28:32.549Z,9.07
2018-12-27T17:31:01.893Z,11.97
2018-12-27T17:33:31.231Z,16.20
2018-12-27T17:36:00.562Z,15.43
2018-12-27T17:41:07.066Z,10.13
2018-12-27T17:43:36.673Z,11.23
2018-12-27T17:46:05.999Z,10.80
2018-12-27T17:48:35.318Z,11.00
2018-12-27T17:51:04.652Z,14.97
2018-12-27T17:53:33.938Z,13.63
2018-12-27T17:56:03.266Z,9.90
2018-12-27T17:58:32.514Z,8.70
2018-12-27T18:01:02.817Z,9.03
2018-12-27T18:06:08.897Z,9.60
2018-12-27T18:08:38.249Z,8.43
2018-12-27T18:11:07.497Z,9.87
2018-12-27T18:13:36.900Z,9.90
2018-12-27T18:16:06.214Z,9.77
2018-12-27T18:18:35.541Z,9.60
2018-12-27T18:21:09.472Z,10.50
2018-12-27T18:23:38.821Z,11.93
2018-12-27T18:26:08.130Z,12.87
2018-12-27T18:28:37.380Z,11.70
2018-12-27T18:31:07.712Z,13.27
2018-12-27T18:33:38.047Z,16.03
2018-12-27T18:36:07.389Z,16.63
2018-12-27T18:38:36.633Z,17.23
2018-12-27T18:41:05.903Z,19.73
2018-12-27T18:43:35.231Z,18.70
2018-12-27T18:46:04.497Z,17.77
2018-12-27T18:48:33.812Z,17.50
2018-12-27T18:51:03.827Z,18.23
2018-12-27T18:53:33.397Z,15.13
2018-12-27T18:56:02.790Z,18.20
2018-12-27T18:58:33.199Z,17.57
2018-12-27T19:01:03.403Z,17.20
2018-12-27T19:03:32.730Z,15.27
2018-12-27T19:06:03.983Z,14.17
2018-12-27T19:08:33.246Z,17.47
2018-12-27T19:11:40.905Z,16.90
2018-12-27T19:14:10.178Z,18.60
2018-12-27T19:16:39.506Z,20.27
2018-12-27T19:19:08.840Z,21.50
2018-12-27T19:21:41.348Z,18.93
2018-12-27T19:24:10.678Z,16.43
2018-12-27T19:26:39.957Z,15.93
2018-12-27T19:29:09.237Z,14.73
2018-12-27T19:31:38.582Z,20.17
2018-12-27T19:34:07.853Z,19.33
2018-12-27T19:36:37.176Z,15.97
2018-12-27T19:39:06.440Z,21.73
2018-12-27T19:41:35.775Z,23.40
2018-12-27T19:44:05.113Z,23.17
2018-12-27T19:46:34.383Z,18.87
2018-12-27T19:49:03.665Z,14.70
2018-12-27T19:51:32.981Z,11.63
2018-12-27T19:54:04.950Z,10.23
2018-12-27T19:56:34.277Z,10.43
2018-12-27T19:59:04.705Z,11.63
2018-12-27T20:01:34.042Z,10.73
2018-12-27T20:04:03.322Z,10.87
2018-12-27T20:06:32.585Z,12.33
2018-12-27T20:09:03.246Z,14.50
2018-12-27T20:11:32.946Z,12.40
2018-12-27T20:14:03.505Z,12.07
2018-12-27T20:16:32.782Z,13.13
2018-12-27T20:19:03.174Z,11.13
2018-12-27T20:21:33.714Z,12.00
2018-12-27T20:24:03.054Z,11.90
2018-12-27T20:26:32.646Z,13.57
2018-12-27T20:29:03.880Z,12.20
2018-12-27T20:31:33.140Z,11.07
2018-12-27T20:34:02.486Z,12.67
2018-12-27T20:36:31.751Z,16.40
2018-12-27T20:39:02.857Z,14.17
2018-12-27T20:41:33.094Z,14.77
2018-12-27T20:44:02.889Z,14.83
2018-12-27T20:46:32.213Z,16.53
2018-12-27T20:49:02.818Z,16.97
2018-12-27T20:51:32.125Z,18.03
2018-12-27T20:54:03.680Z,15.03
2018-12-27T20:56:33.010Z,13.97
2018-12-27T20:59:02.273Z,14.73
2018-12-27T21:01:31.602Z,13.83
2018-12-27T21:04:00.865Z,13.93
2018-12-27T21:06:30.216Z,15.63
2018-12-27T21:08:59.482Z,13.57
2018-12-27T21:11:28.810Z,14.20
2018-12-27T21:13:58.072Z,13.47
2018-12-27T21:16:27.345Z,13.97
2018-12-27T21:18:56.675Z,13.53
2018-12-27T21:21:26.002Z,13.53
2018-12-27T21:23:55.329Z,13.10
2018-12-27T21:26:24.594Z,13.77
2018-12-27T21:28:53.863Z,11.23
2018-12-27T21:31:23.175Z,11.33
2018-12-27T21:33:52.513Z,10.60
2018-12-27T21:36:21.792Z,13.17
2018-12-27T21:38:51.406Z,17.97
2018-12-27T21:41:22.012Z,20.63
2018-12-27T21:43:51.333Z,20.27
2018-12-27T21:46:20.613Z,15.17
2018-12-27T21:48:49.885Z,16.13
2018-12-27T21:53:54.053Z,19.50
2018-12-27T21:56:23.388Z,22.50
2018-12-27T21:58:52.662Z,18.13
2018-12-27T22:01:21.934Z,18.57
2018-12-27T22:03:51.252Z,19.00
2018-12-27T22:06:20.521Z,21.80
2018-12-27T22:08:49.801Z,19.10
2018-12-27T22:11:19.120Z,20.43
2018-12-27T22:13:48.461Z,17.60
2018-12-27T22:16:17.784Z,17.93
2018-12-27T22:18:47.052Z,17.17
2018-12-27T22:21:16.329Z,17.10
2018-12-27T22:23:45.663Z,19.33
2018-12-27T22:26:15.299Z,20.27
2018-12-27T22:28:44.601Z,18.73
2018-12-27T22:31:13.871Z,28.10
2018-12-27T22:33:43.144Z,22.93
2018-12-27T22:36:12.473Z,21.37
2018-12-27T22:38:41.777Z,18.03
2018-12-27T22:41:11.038Z,15.87
2018-12-27T22:43:40.337Z,14.77
2018-12-27T22:46:09.641Z,15.17
2018-12-27T22:48:38.909Z,14.10
2018-12-27T22:51:09.129Z,16.63
2018-12-27T22:53:38.400Z,13.63
2018-12-27T22:56:07.657Z,12.33
2018-12-27T22:58:36.951Z,12.77
2018-12-27T23:01:06.245Z,12.60
2018-12-27T23:03:35.500Z,12.57
2018-12-27T23:06:04.794Z,13.47
2018-12-27T23:08:34.061Z,14.77
2018-12-27T23:11:03.694Z,15.20
2018-12-27T23:13:33.475Z,14.00
